Time;durP1;ratioP1;P1;durP2;ratioP2;P2;SDS_P1;SDS_P2;PMS_P1;PMS_P2;Temp;Humidity;BMP_temperature;BMP_pressure;BME280_temperature;BME280_humidity;BME280_pressure;Samples;Min_cycle;Max_cycle;Signal;HPM_P1;HPM_P2
2023/05/11 00:01:32;;;;;;;2.10;1.60;;;13.10;99.90;;;;;;5071958;28;20259;-72
2023/05/11 00:04:48;;;;;;;3.10;2.23;;;13.00;99.90;;;;;;5071941;28;20400;-72
2023/05/11 00:07:13;;;;;;;15.17;11.30;;;12.90;99.90;;;;;;5071557;28;20827;-73
2023/05/11 00:09:40;;;;;;;82.83;65.00;;;12.80;99.90;;;;;;5053731;28;20400;-73
2023/05/11 00:12:06;;;;;;;58.80;48.33;;;12.80;99.90;;;;;;5071733;28;20159;-72
2023/05/11 00:14:32;;;;;;;42.07;32.50;;;12.80;99.90;;;;;;5053500;28;20884;-72
2023/05/11 00:16:57;;;;;;;91.50;61.70;;;12.80;99.90;;;;;;5071447;28;20424;-72
2023/05/11 00:19:23;;;;;;;89.27;63.37;;;12.80;99.90;;;;;;5071640;28;20154;-72
2023/05/11 00:21:48;;;;;;;93.47;63.40;;;12.70;99.90;;;;;;5071596;28;20284;-72
2023/05/11 00:24:14;;;;;;;34.17;22.53;;;12.80;99.90;;;;;;5071643;28;20245;-72
2023/05/11 00:26:39;;;;;;;21.57;12.30;;;12.80;99.90;;;;;;5071614;28;20193;-72
2023/05/11 00:29:05;;;;;;;8.27;4.87;;;12.80;99.90;;;;;;5071438;28;20697;-72
2023/05/11 00:31:31;;;;;;;2.50;2.30;;;12.80;99.90;;;;;;5071528;28;20166;-72
2023/05/11 00:33:57;;;;;;;1.77;1.47;;;12.80;99.90;;;;;;5053788;28;20792;-72
2023/05/11 00:36:22;;;;;;;1.80;1.33;;;12.80;99.90;;;;;;5071451;28;20408;-72
2023/05/11 00:38:48;;;;;;;2.07;1.13;;;12.80;99.90;;;;;;5071190;28;20173;-72
2023/05/11 00:41:14;;;;;;;1.40;0.87;;;12.80;99.90;;;;;;5053680;28;20207;-73
2023/05/11 00:43:40;;;;;;;1.43;1.27;;;12.80;99.90;;;;;;5071545;28;20400;-72
2023/05/11 00:46:06;;;;;;;2.37;2.17;;;12.70;99.90;;;;;;5053343;28;20552;-73
2023/05/11 00:48:32;;;;;;;2.50;1.67;;;12.70;99.90;;;;;;5071278;28;20163;-72
2023/05/11 00:51:02;;;;;;;3.03;2.30;;;12.70;99.90;;;;;;5071471;28;20420;-72
2023/05/11 00:53:28;;;;;;;2.90;2.17;;;12.70;99.90;;;;;;5053452;28;20460;-72
2023/05/11 00:55:53;;;;;;;2.40;2.20;;;12.70;99.90;;;;;;5071389;28;20450;-72
2023/05/11 00:58:19;;;;;;;4.27;2.63;;;12.70;99.90;;;;;;5053193;28;20169;-72
2023/05/11 01:00:46;;;;;;;4.40;3.00;;;12.70;99.90;;;;;;5072647;28;20159;-72
2023/05/11 01:03:13;;;;;;;4.10;3.10;;;12.70;99.90;;;;;;5075241;28;20245;-72
2023/05/11 01:05:48;;;;;;;4.13;3.10;;;12.70;99.90;;;;;;5074980;28;20897;-72
2023/05/11 01:08:16;;;;;;;5.23;4.00;;;12.70;99.90;;;;;;5074785;28;20399;-72
2023/05/11 01:10:55;;;;;;;4.07;2.87;;;12.70;99.90;;;;;;5074937;28;20401;-72
2023/05/11 01:13:32;;;;;;;6.27;3.30;;;12.70;99.90;;;;;;5056610;28;20434;-72
2023/05/11 01:16:00;;;;;;;4.47;3.70;;;12.70;99.90;;;;;;5074966;28;20766;-72
2023/05/11 01:18:40;;;;;;;5.50;4.10;;;12.80;99.90;;;;;;5074720;28;20762;-72
2023/05/11 01:21:08;;;;;;;5.40;3.33;;;12.80;99.90;;;;;;5074849;28;20405;-72
2023/05/11 01:23:42;;;;;;;5.27;3.63;;;12.80;99.90;;;;;;5074738;28;20813;-72
2023/05/11 01:26:20;;;;;;;5.97;3.80;;;12.90;99.90;;;;;;5074710;28;20407;-72
2023/05/11 01:29:21;;;;;;;5.03;3.83;;;12.90;99.90;;;;;;5074588;28;20392;-72
2023/05/11 01:31:48;;;;;;;10.00;4.43;;;12.90;99.90;;;;;;5074696;28;20403;-72
2023/05/11 01:34:21;;;;;;;6.40;5.00;;;12.90;99.90;;;;;;5074609;28;20448;-72
2023/05/11 01:37:12;;;;;;;6.70;5.10;;;12.90;99.90;;;;;;5056548;28;20835;-72
2023/05/11 01:39:51;;;;;;;7.47;5.20;;;12.90;99.90;;;;;;5074146;28;20405;-72
2023/05/11 01:42:23;;;;;;;6.97;4.57;;;12.80;99.90;;;;;;5074375;28;20763;-72
2023/05/11 01:44:52;;;;;;;10.53;6.00;;;12.80;99.90;;;;;;5074364;28;20404;-72
2023/05/11 01:47:20;;;;;;;8.80;6.23;;;12.70;99.90;;;;;;5073987;28;20565;-72
2023/05/11 01:49:46;;;;;;;9.40;6.33;;;12.60;99.90;;;;;;5074507;28;20404;-72
2023/05/11 01:52:13;;;;;;;11.60;6.43;;;12.60;99.90;;;;;;5056299;28;20404;-72
2023/05/11 01:54:41;;;;;;;12.50;5.60;;;12.60;99.90;;;;;;5074130;28;20526;-72
2023/05/11 01:57:10;;;;;;;11.10;7.00;;;12.50;99.90;;;;;;5073713;28;20428;-72
2023/05/11 01:59:38;;;;;;;11.47;7.33;;;12.50;99.90;;;;;;5074138;28;20511;-72
2023/05/11 02:02:07;;;;;;;9.73;6.70;;;12.40;99.90;;;;;;5054682;28;20495;-72
2023/05/11 02:04:35;;;;;;;9.10;6.10;;;12.40;99.90;;;;;;5073941;28;20510;-72
2023/05/11 02:07:01;;;;;;;10.63;6.40;;;12.40;99.90;;;;;;5073620;28;20421;-72
2023/05/11 02:09:30;;;;;;;8.10;6.17;;;12.40;99.90;;;;;;5055897;28;20408;-72
2023/05/11 02:11:57;;;;;;;10.53;7.30;;;12.40;99.90;;;;;;5073572;28;20412;-72
2023/05/11 02:14:24;;;;;;;9.93;6.00;;;12.40;99.90;;;;;;5073997;28;20981;-72
2023/05/11 02:16:51;;;;;;;10.23;5.43;;;12.40;99.90;;;;;;5073155;28;21004;-72
2023/05/11 02:19:17;;;;;;;8.90;5.97;;;12.40;99.90;;;;;;5073643;28;20487;-72
2023/05/11 02:21:45;;;;;;;7.23;6.20;;;12.30;99.90;;;;;;5073406;28;20458;-72
2023/05/11 02:24:11;;;;;;;10.63;6.70;;;12.20;99.90;;;;;;5073737;28;20432;-72
2023/05/11 02:26:36;;;;;;;10.33;6.60;;;12.10;99.90;;;;;;5073592;28;20454;-72
2023/05/11 02:29:02;;;;;;;11.17;7.67;;;12.10;99.90;;;;;;5073261;28;20397;-72
2023/05/11 02:31:31;;;;;;;10.40;5.87;;;12.10;99.90;;;;;;5073447;28;20170;-72
2023/05/11 02:34:06;;;;;;;11.13;7.00;;;12.00;99.90;;;;;;5073136;28;20261;-72
2023/05/11 02:36:33;;;;;;;16.30;10.77;;;12.00;99.90;;;;;;5073578;28;20439;-72
2023/05/11 02:39:05;;;;;;;10.63;8.03;;;12.00;99.90;;;;;;5073116;28;20396;-72
2023/05/11 02:41:32;;;;;;;11.70;6.90;;;12.10;99.90;;;;;;5073431;28;20446;-72
2023/05/11 02:44:03;;;;;;;8.80;7.30;;;12.10;99.90;;;;;;5073155;28;20412;-71
2023/05/11 02:46:34;;;;;;;9.30;6.60;;;12.10;99.90;;;;;;5073214;28;20470;-72
2023/05/11 02:49:02;;;;;;;9.10;6.70;;;12.20;99.90;;;;;;5072734;28;20443;-72
2023/05/11 02:51:41;;;;;;;11.10;6.07;;;12.20;99.90;;;;;;5073146;28;20633;-71
2023/05/11 02:54:09;;;;;;;10.00;6.50;;;12.30;99.90;;;;;;5054999;28;20463;-71
2023/05/11 02:56:36;;;;;;;12.73;7.20;;;12.40;99.90;;;;;;5055080;28;20420;-72
2023/05/11 02:59:02;;;;;;;11.70;6.80;;;12.40;99.90;;;;;;5072892;28;20882;-72
2023/05/11 03:01:29;;;;;;;11.93;7.80;;;12.50;99.90;;;;;;5073100;28;20403;-72
2023/05/11 03:03:55;;;;;;;11.33;8.10;;;12.50;99.90;;;;;;5072831;28;20178;-72
2023/05/11 03:06:21;;;;;;;9.77;6.70;;;12.60;99.90;;;;;;5072707;28;20435;-72
2023/05/11 03:08:47;;;;;;;9.20;6.67;;;12.60;99.90;;;;;;5054630;28;20419;-71
2023/05/11 03:11:14;;;;;;;8.50;6.23;;;12.60;99.90;;;;;;5072796;28;20165;-72
2023/05/11 03:13:41;;;;;;;7.00;5.90;;;12.60;99.90;;;;;;5072604;28;20979;-72
2023/05/11 03:16:10;;;;;;;7.20;5.30;;;12.60;99.90;;;;;;5072615;28;20469;-71
2023/05/11 03:18:36;;;;;;;9.60;6.27;;;12.60;99.90;;;;;;5072457;28;20393;-72
2023/05/11 03:21:02;;;;;;;8.00;5.70;;;12.60;99.90;;;;;;5072648;28;20401;-72
2023/05/11 03:23:29;;;;;;;11.10;6.33;;;12.60;99.90;;;;;;5072018;28;20782;-72
2023/05/11 03:25:56;;;;;;;7.13;6.03;;;12.60;99.90;;;;;;5054634;28;20401;-72
2023/05/11 03:28:24;;;;;;;11.93;5.27;;;12.60;99.90;;;;;;5072308;28;20414;-72
2023/05/11 03:30:51;;;;;;;8.23;5.47;;;12.50;99.90;;;;;;5072608;28;20401;-72
2023/05/11 03:33:17;;;;;;;7.13;5.67;;;12.50;99.90;;;;;;5072239;28;20401;-72
2023/05/11 03:35:46;;;;;;;4.73;3.60;;;12.50;99.90;;;;;;5072275;28;20408;-72
2023/05/11 03:38:13;;;;;;;6.60;5.43;;;12.40;99.90;;;;;;5072025;28;20163;-73
2023/05/11 03:40:40;;;;;;;6.03;5.10;;;12.30;99.90;;;;;;5072499;28;20401;-72
2023/05/11 03:43:10;;;;;;;8.00;5.00;;;12.40;99.90;;;;;;5072361;28;20400;-72
2023/05/11 03:45:37;;;;;;;9.37;4.77;;;12.50;99.90;;;;;;5072240;28;20785;-72
2023/05/11 03:48:05;;;;;;;7.03;4.83;;;12.40;99.90;;;;;;5071974;28;21074;-72
2023/05/11 03:50:31;;;;;;;8.17;4.67;;;12.50;99.90;;;;;;5072149;28;20400;-72
2023/05/11 03:52:58;;;;;;;7.60;4.80;;;12.50;99.90;;;;;;5072086;28;20401;-72
2023/05/11 03:55:23;;;;;;;7.60;5.00;;;12.50;99.90;;;;;;5071883;28;20458;-72
2023/05/11 03:57:50;;;;;;;7.80;6.30;;;12.50;99.90;;;;;;5071732;28;20508;-72
2023/05/11 04:00:15;;;;;;;6.23;5.00;;;12.50;99.90;;;;;;5071881;28;20166;-73
2023/05/11 04:02:41;;;;;;;7.73;5.03;;;12.60;99.90;;;;;;5072074;28;20407;-72
2023/05/11 04:05:08;;;;;;;6.57;5.40;;;12.60;99.90;;;;;;5071959;28;20487;-72
2023/05/11 04:07:35;;;;;;;6.97;4.70;;;12.60;99.90;;;;;;5071491;28;20182;-72
2023/05/11 04:10:01;;;;;;;6.27;4.80;;;12.60;99.90;;;;;;5071973;28;20405;-72
2023/05/11 04:12:27;;;;;;;15.00;9.60;;;12.60;99.90;;;;;;5071959;28;20400;-72
2023/05/11 04:14:52;;;;;;;16.20;10.40;;;12.60;99.90;;;;;;5071575;28;20513;-72
2023/05/11 04:17:18;;;;;;;12.43;7.47;;;12.70;99.90;;;;;;5071606;28;20537;-72
2023/05/11 04:19:43;;;;;;;7.17;5.80;;;12.70;99.90;;;;;;5071758;28;20173;-72
2023/05/11 04:22:11;;;;;;;7.30;6.00;;;12.80;99.90;;;;;;5071555;28;20163;-72
2023/05/11 04:24:36;;;;;;;8.43;5.60;;;12.80;99.90;;;;;;5071914;28;20568;-72
2023/05/11 04:27:02;;;;;;;6.80;5.40;;;12.90;99.90;;;;;;5053536;28;20436;-72
2023/05/11 04:29:28;;;;;;;7.17;5.63;;;12.90;99.90;;;;;;5071784;28;20835;-72
2023/05/11 04:31:54;;;;;;;11.07;7.10;;;12.90;99.90;;;;;;5071582;28;20450;-72
2023/05/11 04:34:20;;;;;;;12.70;6.97;;;12.90;99.90;;;;;;5071652;28;20991;-73
2023/05/11 04:36:49;;;;;;;8.67;6.87;;;13.00;99.90;;;;;;5056858;28;20424;-72
2023/05/11 04:39:16;;;;;;;9.73;6.97;;;13.10;99.90;;;;;;5075676;28;20412;-72
2023/05/11 04:41:44;;;;;;;15.70;8.73;;;13.20;99.90;;;;;;5075758;28;20408;-72
2023/05/11 04:44:10;;;;;;;12.90;8.73;;;13.30;99.90;;;;;;5075666;28;20408;-72
2023/05/11 04:46:37;;;;;;;12.40;8.03;;;13.40;99.90;;;;;;5075644;28;20477;-72
2023/05/11 04:49:06;;;;;;;17.13;9.10;;;13.50;99.90;;;;;;5075350;28;20197;-72
2023/05/11 04:51:31;;;;;;;14.40;8.63;;;13.70;99.90;;;;;;5075557;28;20820;-72
2023/05/11 04:53:57;;;;;;;14.33;8.33;;;13.90;99.90;;;;;;5075454;28;20448;-72
2023/05/11 04:56:23;;;;;;;14.20;9.17;;;14.10;99.90;;;;;;5057179;28;20699;-72
2023/05/11 04:58:48;;;;;;;22.77;10.00;;;14.30;99.90;;;;;;5075066;28;20167;-72
2023/05/11 05:01:14;;;;;;;25.50;15.20;;;14.40;99.90;;;;;;5075413;28;20177;-72
2023/05/11 05:03:39;;;;;;;18.33;11.70;;;14.60;99.90;;;;;;5057298;28;20173;-72
2023/05/11 05:06:05;;;;;;;13.43;9.90;;;14.80;99.90;;;;;;5075187;28;20190;-72
2023/05/11 05:08:30;;;;;;;18.93;11.40;;;15.00;99.90;;;;;;5075005;28;20170;-72
2023/05/11 05:10:56;;;;;;;13.00;7.70;;;15.20;99.90;;;;;;5057174;28;20174;-72
2023/05/11 05:13:21;;;;;;;15.30;8.50;;;15.20;99.90;;;;;;5074721;28;20184;-72
2023/05/11 05:15:47;;;;;;;12.27;7.97;;;15.30;99.90;;;;;;5074907;28;20315;-72
2023/05/11 05:18:12;;;;;;;12.30;7.40;;;15.40;99.90;;;;;;5074701;28;20245;-73
2023/05/11 05:20:38;;;;;;;23.03;10.20;;;15.60;99.90;;;;;;5074905;28;20167;-73
2023/05/11 05:23:04;;;;;;;12.93;8.33;;;15.60;99.90;;;;;;5074821;28;20163;-73
2023/05/11 05:25:30;;;;;;;9.43;6.57;;;15.60;99.90;;;;;;5074859;28;20162;-73
2023/05/11 05:27:55;;;;;;;15.10;9.10;;;15.80;99.90;;;;;;5074603;28;20794;-73
2023/05/11 05:30:21;;;;;;;11.73;7.10;;;15.90;99.90;;;;;;5074829;28;20162;-73
2023/05/11 05:32:46;;;;;;;9.43;6.00;;;15.90;99.90;;;;;;5074726;28;20261;-73
2023/05/11 05:35:12;;;;;;;10.20;6.60;;;16.00;99.90;;;;;;5074574;28;20263;-73
2023/05/11 05:37:37;;;;;;;8.70;6.10;;;16.10;99.90;;;;;;5074432;28;20675;-73
2023/05/11 05:40:04;;;;;;;8.47;6.00;;;16.20;99.90;;;;;;5074522;28;20169;-73
2023/05/11 05:42:30;;;;;;;11.20;6.90;;;16.20;99.90;;;;;;5074557;28;20169;-73
2023/05/11 05:44:55;;;;;;;7.57;5.57;;;16.20;99.90;;;;;;5074440;28;20909;-73
2023/05/11 05:47:21;;;;;;;8.70;6.57;;;16.30;99.90;;;;;;5073708;28;20733;-73
2023/05/11 05:49:46;;;;;;;14.23;7.47;;;16.30;99.90;;;;;;5074411;28;20166;-73
2023/05/11 05:52:12;;;;;;;7.63;6.80;;;16.40;99.90;;;;;;5074293;28;20162;-73
2023/05/11 05:54:37;;;;;;;11.17;7.60;;;16.50;99.90;;;;;;5074229;28;20259;-73
2023/05/11 05:57:03;;;;;;;11.00;6.87;;;16.70;99.90;;;;;;5073963;28;20261;-73
2023/05/11 05:59:28;;;;;;;15.30;7.07;;;16.70;99.90;;;;;;5056225;28;20170;-73
2023/05/11 06:01:54;;;;;;;9.33;6.47;;;16.60;99.90;;;;;;5074176;28;20162;-73
2023/05/11 06:04:20;;;;;;;10.43;6.90;;;16.60;99.90;;;;;;5074115;28;20527;-73
2023/05/11 06:06:46;;;;;;;9.43;7.40;;;16.60;99.90;;;;;;5074124;28;20194;-73
2023/05/11 06:09:12;;;;;;;11.00;6.17;;;16.60;99.90;;;;;;5055844;28;20170;-73
2023/05/11 06:11:37;;;;;;;8.90;5.97;;;16.60;99.90;;;;;;5073961;28;20400;-73
2023/05/11 06:14:03;;;;;;;8.57;6.17;;;16.50;99.90;;;;;;5073818;28;20900;-73
2023/05/11 06:16:29;;;;;;;11.33;6.83;;;16.60;99.90;;;;;;5073899;28;20214;-73
2023/05/11 06:18:54;;;;;;;11.63;7.40;;;16.80;99.90;;;;;;5073804;28;20477;-73
2023/05/11 06:21:20;;;;;;;13.63;9.17;;;16.90;99.90;;;;;;5073785;28;20167;-73
2023/05/11 06:23:46;;;;;;;12.70;8.63;;;16.90;99.90;;;;;;5073804;28;20202;-73
2023/05/11 06:26:11;;;;;;;18.70;8.43;;;17.00;99.90;;;;;;5055773;28;20577;-73
2023/05/11 06:28:37;;;;;;;12.20;8.50;;;17.10;99.90;;;;;;5073562;28;20177;-73
2023/05/11 06:31:02;;;;;;;12.80;8.67;;;17.20;99.90;;;;;;5073687;28;20175;-73
2023/05/11 06:33:29;;;;;;;8.90;7.40;;;17.20;99.90;;;;;;5055617;28;20588;-73
2023/05/11 06:35:54;;;;;;;8.60;6.40;;;17.20;99.90;;;;;;5073475;28;20190;-73
2023/05/11 06:38:20;;;;;;;10.27;7.97;;;17.30;99.90;;;;;;5073306;28;20408;-73
2023/05/11 06:40:45;;;;;;;13.23;8.80;;;17.50;99.90;;;;;;5055711;28;20216;-73
2023/05/11 06:43:11;;;;;;;9.83;7.00;;;17.60;99.90;;;;;;5073414;28;20654;-73
2023/05/11 06:45:36;;;;;;;8.53;7.40;;;17.70;99.90;;;;;;5055467;28;20209;-73
2023/05/11 06:48:02;;;;;;;9.77;6.60;;;17.90;99.90;;;;;;5073000;28;20217;-73
2023/05/11 06:50:28;;;;;;;9.73;8.70;;;18.10;99.90;;;;;;5073235;28;20162;-73
2023/05/11 06:52:54;;;;;;;11.90;6.47;;;18.10;99.90;;;;;;5055243;28;20944;-73
2023/05/11 06:55:19;;;;;;;10.73;6.80;;;18.10;99.90;;;;;;5073226;28;20190;-73
2023/05/11 06:57:45;;;;;;;9.43;7.27;;;18.10;99.90;;;;;;5072238;28;20178;-73
2023/05/11 07:00:11;;;;;;;18.07;7.93;;;18.00;99.90;;;;;;5072839;28;20242;-73
2023/05/11 07:02:36;;;;;;;8.97;7.67;;;17.80;99.90;;;;;;5073092;28;20737;-73
2023/05/11 07:05:02;;;;;;;10.93;7.77;;;17.70;99.90;;;;;;5072915;28;20577;-73
2023/05/11 07:07:28;;;;;;;13.80;8.23;;;17.70;99.90;;;;;;5072573;28;20194;-73
2023/05/11 07:09:53;;;;;;;11.70;7.90;;;17.90;99.90;;;;;;5072879;28;20171;-73
2023/05/11 07:12:19;;;;;;;9.40;7.13;;;18.00;99.90;;;;;;5072349;28;20176;-73
2023/05/11 07:14:44;;;;;;;12.37;9.30;;;18.20;99.90;;;;;;5072617;28;20715;-70
2023/05/11 07:17:10;;;;;;;11.00;7.57;;;18.40;99.90;;;;;;5072346;28;20271;-70
2023/05/11 07:19:36;;;;;;;8.03;6.40;;;18.50;99.90;;;;;;5072517;28;20169;-70
2023/05/11 07:22:02;;;;;;;6.77;6.07;;;18.70;99.90;;;;;;5072607;28;20531;-70
2023/05/11 07:24:27;;;;;;;10.63;8.33;;;19.00;99.90;;;;;;5072597;28;20415;-70
2023/05/11 07:26:54;;;;;;;14.23;8.07;;;19.00;99.90;;;;;;5072152;28;20420;-68
2023/05/11 07:29:20;;;;;;;8.50;6.30;;;19.10;99.90;;;;;;5072560;28;20170;-70
2023/05/11 07:31:45;;;;;;;10.03;6.97;;;19.20;99.90;;;;;;5072389;28;20514;-70
2023/05/11 07:34:11;;;;;;;7.70;6.10;;;19.50;99.90;;;;;;5072310;28;20190;-70
2023/05/11 07:36:36;;;;;;;8.87;7.07;;;19.60;99.90;;;;;;5072274;28;20186;-70
2023/05/11 07:39:02;;;;;;;7.40;6.03;;;19.80;99.90;;;;;;5054063;28;20169;-70
2023/05/11 07:41:28;;;;;;;8.47;6.73;;;20.00;99.90;;;;;;5072234;28;20173;-70
2023/05/11 07:43:53;;;;;;;9.10;7.07;;;20.00;99.90;;;;;;5072208;28;20512;-70
2023/05/11 07:46:19;;;;;;;9.87;7.40;;;20.10;99.90;;;;;;5072151;28;20435;-70
2023/05/11 07:48:45;;;;;;;6.13;5.10;;;20.30;99.90;;;;;;5071846;28;20166;-70
2023/05/11 07:51:11;;;;;;;7.80;5.37;;;20.70;99.90;;;;;;5072201;28;20162;-70
2023/05/11 07:53:37;;;;;;;7.03;6.00;;;21.30;99.90;;;;;;5072065;28;20423;-70
2023/05/11 07:56:03;;;;;;;9.20;6.83;;;22.00;99.90;;;;;;5072094;28;20178;-70
2023/05/11 07:58:29;;;;;;;7.63;5.80;;;22.40;99.90;;;;;;5071815;28;20158;-70
2023/05/11 08:00:55;;;;;;;7.50;5.40;;;22.70;99.90;;;;;;5072066;28;20772;-70
2023/05/11 08:03:21;;;;;;;5.00;4.50;;;22.90;99.90;;;;;;5072042;28;20158;-70
2023/05/11 08:05:47;;;;;;;6.30;4.90;;;24.50;99.90;;;;;;5071886;28;20912;-70
2023/05/11 08:08:12;;;;;;;6.00;5.00;;;26.20;99.90;;;;;;5071744;28;20677;-68
2023/05/11 08:10:38;;;;;;;8.07;6.40;;;27.50;93.50;;;;;;5053768;28;20162;-68
2023/05/11 08:13:04;;;;;;;6.90;4.80;;;27.70;73.50;;;;;;5071850;28;20178;-68
2023/05/11 08:15:29;;;;;;;8.60;4.30;;;28.30;74.00;;;;;;5071950;28;20482;-68
2023/05/11 08:17:55;;;;;;;6.07;4.90;;;29.00;68.70;;;;;;5071471;28;20197;-71
2023/05/11 08:20:21;;;;;;;4.90;4.40;;;29.10;59.60;;;;;;5072094;28;20622;-70
2023/05/11 08:22:46;;;;;;;3.90;3.40;;;29.60;60.50;;;;;;5071781;28;20245;-68
2023/05/11 08:25:12;;;;;;;5.23;4.47;;;31.30;60.00;;;;;;5071836;28;20296;-68
2023/05/11 08:27:38;;;;;;;3.43;2.93;;;33.30;54.40;;;;;;5071463;28;20186;-68
2023/05/11 08:30:04;;;;;;;3.97;3.50;;;34.80;49.60;;;;;;5071820;28;20170;-68
2023/05/11 08:32:29;;;;;;;4.60;3.90;;;34.60;46.30;;;;;;5071692;28;20245;-68
2023/05/11 08:34:55;;;;;;;4.50;4.10;;;33.60;45.60;;;;;;5071446;28;20547;-68
2023/05/11 08:37:21;;;;;;;4.77;4.20;;;32.20;45.50;;;;;;5071343;28;20654;-68
2023/05/11 08:39:47;;;;;;;6.53;5.33;;;30.80;46.50;;;;;;5072074;28;20627;-68
2023/05/11 08:42:14;;;;;;;6.13;4.60;;;29.60;47.70;;;;;;5071665;28;20450;-67
2023/05/11 08:44:42;;;;;;;6.17;4.40;;;28.30;49.20;;;;;;5071589;28;20174;-67
2023/05/11 08:47:08;;;;;;;4.10;3.70;;;27.30;51.60;;;;;;5071326;28;20424;-67
2023/05/11 08:49:35;;;;;;;5.77;4.37;;;26.20;53.70;;;;;;5071576;28;20436;-67
2023/05/11 08:52:04;;;;;;;4.90;4.40;;;25.30;55.40;;;;;;5071583;28;20748;-67
2023/05/11 08:54:30;;;;;;;7.33;5.37;;;24.50;57.70;;;;;;5071413;28;20448;-67
2023/05/11 08:56:57;;;;;;;6.90;5.27;;;23.90;60.80;;;;;;5071037;28;20485;-67
2023/05/11 08:59:27;;;;;;;10.67;6.63;;;23.40;65.90;;;;;;5071513;28;20169;-67
2023/05/11 09:01:54;;;;;;;8.97;5.27;;;22.80;70.90;;;;;;5071423;28;20397;-66
2023/05/11 09:04:21;;;;;;;5.80;5.20;;;22.40;79.40;;;;;;5071397;28;20404;-66
2023/05/11 09:06:48;;;;;;;10.97;7.00;;;22.00;88.40;;;;;;5071262;28;20787;-66
2023/05/11 09:09:15;;;;;;;6.50;4.50;;;21.80;94.70;;;;;;5071290;28;20408;-69
2023/05/11 09:11:41;;;;;;;10.13;5.23;;;21.50;99.90;;;;;;5053533;28;20417;-69
2023/05/11 09:14:07;;;;;;;7.53;4.03;;;21.30;99.90;;;;;;5053323;28;20796;-69
2023/05/11 09:16:33;;;;;;;8.87;5.60;;;21.20;99.90;;;;;;5071253;28;20416;-69
2023/05/11 09:19:02;;;;;;;7.60;5.60;;;21.10;99.90;;;;;;5070958;28;20401;-69
2023/05/11 09:21:31;;;;;;;13.10;6.87;;;21.20;99.90;;;;;;5072154;28;20662;-69
2023/05/11 09:23:58;;;;;;;9.50;7.57;;;21.30;99.90;;;;;;5074916;28;20453;-69
2023/05/11 09:26:25;;;;;;;15.80;5.73;;;21.30;99.90;;;;;;5074806;28;20424;-69
2023/05/11 09:28:58;;;;;;;8.17;5.73;;;21.30;99.90;;;;;;5056501;28;20469;-69
2023/05/11 09:31:34;;;;;;;7.47;5.70;;;21.30;99.90;;;;;;5074800;28;20759;-69
2023/05/11 09:34:15;;;;;;;12.93;6.90;;;21.50;99.90;;;;;;5074748;28;21091;-69
2023/05/11 09:36:42;;;;;;;10.07;6.93;;;21.70;99.90;;;;;;5074546;28;20416;-69
2023/05/11 09:39:08;;;;;;;8.57;6.60;;;22.00;99.90;;;;;;5074323;28;20397;-68
2023/05/11 09:41:33;;;;;;;7.03;6.20;;;22.20;99.90;;;;;;5074527;28;20419;-68
2023/05/11 09:44:09;;;;;;;11.80;7.27;;;22.40;99.90;;;;;;5074400;28;20411;-69
2023/05/11 09:46:35;;;;;;;15.20;8.67;;;22.60;99.90;;;;;;5074155;28;20209;-69
2023/05/11 09:49:02;;;;;;;11.50;6.77;;;22.90;99.90;;;;;;5056169;28;20933;-69
2023/05/11 09:51:30;;;;;;;13.23;8.17;;;23.50;99.90;;;;;;5074409;28;20411;-69
2023/05/11 09:53:57;;;;;;;9.87;7.80;;;24.20;99.90;;;;;;5074279;28;20448;-69
2023/05/11 09:56:22;;;;;;;13.60;8.70;;;24.70;99.90;;;;;;5074210;28;20499;-69
2023/05/11 09:58:54;;;;;;;19.13;9.67;;;24.80;93.30;;;;;;5073859;28;20857;-69
2023/05/11 10:01:31;;;;;;;15.73;8.50;;;24.80;90.70;;;;;;5073881;28;20241;-69
2023/05/11 10:03:58;;;;;;;12.47;8.43;;;24.90;91.00;;;;;;5070616;28;20408;-69
2023/05/11 10:06:24;;;;;;;10.10;7.57;;;24.90;91.00;;;;;;5074064;28;20420;-69
2023/05/11 10:08:51;;;;;;;13.47;8.13;;;24.90;91.20;;;;;;5073776;28;20974;-69
2023/05/11 10:11:20;;;;;;;12.20;7.70;;;24.70;87.50;;;;;;5074171;28;20405;-67
2023/05/11 10:13:45;;;;;;;9.27;7.10;;;24.40;86.50;;;;;;5073782;28;20794;-67
2023/05/11 10:16:13;;;;;;;12.43;9.13;;;24.30;89.10;;;;;;5073809;28;20509;-67
2023/05/11 10:18:39;;;;;;;10.23;6.60;;;24.30;90.60;;;;;;5073554;28;20166;-67
2023/05/11 10:21:05;;;;;;;11.60;7.67;;;24.10;90.60;;;;;;5073885;28;20917;-67
2023/05/11 10:23:32;;;;;;;12.17;8.03;;;24.10;91.50;;;;;;5073805;28;20397;-67
2023/05/11 10:25:59;;;;;;;14.23;8.70;;;24.10;91.70;;;;;;5073688;28;20894;-67
2023/05/11 10:28:25;;;;;;;14.00;8.20;;;24.10;91.70;;;;;;5067123;28;20444;-67
2023/05/11 10:30:52;;;;;;;12.20;9.50;;;24.00;91.00;;;;;;5073518;28;20436;-67
2023/05/11 10:33:18;;;;;;;16.83;9.90;;;23.90;91.50;;;;;;5073550;28;20176;-67
2023/05/11 10:35:44;;;;;;;13.67;8.73;;;23.60;91.20;;;;;;5073395;28;20971;-67
2023/05/11 10:38:12;;;;;;;13.23;9.17;;;23.70;93.50;;;;;;5073073;28;20405;-68
2023/05/11 10:40:41;;;;;;;14.50;8.03;;;23.80;94.20;;;;;;5073500;28;20970;-67
2023/05/11 10:43:17;;;;;;;8.60;7.70;;;23.90;94.20;;;;;;5073386;28;20408;-67
2023/05/11 10:45:54;;;;;;;13.87;8.13;;;24.20;94.40;;;;;;5073217;28;20415;-67
2023/05/11 10:48:49;;;;;;;13.93;8.83;;;24.50;93.40;;;;;;5072947;28;20503;-67
2023/05/11 10:51:28;;;;;;;11.10;7.73;;;25.00;92.70;;;;;;5073257;28;20419;-67
2023/05/11 10:54:39;;;;;;;10.90;7.73;;;25.70;91.40;;;;;;5073143;28;20447;-68
2023/05/11 10:57:23;;;;;;;10.87;6.60;;;26.70;81.20;;;;;;5072717;28;20436;-68
2023/05/11 11:00:29;;;;;;;10.93;6.73;;;27.80;75.50;;;;;;5072992;28;20435;-68
2023/05/11 11:02:55;;;;;;;9.13;6.50;;;28.30;70.00;;;;;;4990168;28;20991;-68
2023/05/11 11:05:35;;;;;;;8.80;6.70;;;28.40;62.80;;;;;;5072986;28;20436;-68
2023/05/11 11:08:06;;;;;;;14.30;7.37;;;28.30;61.50;;;;;;5072526;28;20589;-68
2023/05/11 11:10:34;;;;;;;11.17;7.60;;;28.60;62.10;;;;;;5072951;28;20427;-68
2023/05/11 11:13:06;;;;;;;9.47;6.27;;;29.00;60.50;;;;;;5072658;28;20503;-68
2023/05/11 11:15:53;;;;;;;7.20;5.30;;;29.50;59.40;;;;;;5072617;28;20609;-68
2023/05/11 11:18:27;;;;;;;7.33;5.20;;;30.80;58.10;;;;;;5072450;28;20407;-68
2023/05/11 11:20:54;;;;;;;7.43;5.67;;;32.30;56.10;;;;;;5072623;28;20405;-68
2023/05/11 11:23:38;;;;;;;6.33;5.10;;;33.70;53.20;;;;;;5072666;28;20404;-68
2023/05/11 11:26:05;;;;;;;7.50;6.03;;;34.80;49.40;;;;;;5072432;28;20424;-68
2023/05/11 11:29:01;;;;;;;12.70;8.10;;;34.90;46.00;;;;;;5072243;28;20409;-68
2023/05/11 11:31:28;;;;;;;7.83;5.40;;;35.30;42.80;;;;;;5072512;28;20401;-68
2023/05/11 11:33:57;;;;;;;6.80;6.10;;;35.90;43.00;;;;;;5072345;28;20479;-68
2023/05/11 11:36:53;;;;;;;7.87;5.50;;;36.50;42.30;;;;;;5064187;28;20426;-68
2023/05/11 11:39:25;;;;;;;11.40;7.50;;;36.90;39.70;;;;;;5052381;28;20460;-68
2023/05/11 11:42:04;;;;;;;7.53;6.53;;;36.90;38.30;;;;;;5052245;28;20394;-68
2023/05/11 11:44:30;;;;;;;7.50;6.33;;;37.20;39.10;;;;;;5051711;28;20413;-68
2023/05/11 11:47:19;;;;;;;5.13;4.63;;;37.00;38.80;;;;;;5051879;28;20944;-69
2023/05/11 11:49:54;;;;;;;7.00;4.97;;;36.90;39.20;;;;;;5034526;28;20178;-69
2023/05/11 11:52:26;;;;;;;14.97;5.60;;;36.80;38.90;;;;;;5052199;28;20504;-68
2023/05/11 11:54:52;;;;;;;9.10;5.77;;;36.80;38.50;;;;;;5052060;28;20449;-69
2023/05/11 11:57:32;;;;;;;5.20;4.70;;;36.80;38.70;;;;;;5051689;28;20429;-69
2023/05/11 11:59:59;;;;;;;7.53;6.57;;;36.70;38.40;;;;;;5052003;28;20408;-68
2023/05/11 12:02:26;;;;;;;5.80;5.20;;;36.40;38.00;;;;;;5052287;28;20745;-68
2023/05/11 12:05:16;;;;;;;5.03;4.50;;;36.00;38.40;;;;;;5052009;28;20412;-68
2023/05/11 12:07:44;;;;;;;7.40;5.80;;;35.70;39.10;;;;;;5051582;28;20452;-68
2023/05/11 12:10:12;;;;;;;6.63;5.90;;;35.00;38.90;;;;;;5052022;28;20402;-68
2023/05/11 12:12:38;;;;;;;7.70;6.70;;;33.90;38.80;;;;;;5051868;28;20405;-68
2023/05/11 12:15:05;;;;;;;9.13;6.77;;;32.50;39.70;;;;;;5051676;28;20453;-68
2023/05/11 12:17:33;;;;;;;9.40;6.97;;;31.30;41.30;;;;;;5050863;28;20441;-68
2023/05/11 12:20:13;;;;;;;6.93;6.00;;;30.50;43.10;;;;;;5051739;28;20393;-68
2023/05/11 12:22:39;;;;;;;6.10;4.87;;;29.90;44.90;;;;;;5051582;28;20494;-68
2023/05/11 12:25:06;;;;;;;6.50;5.50;;;29.70;46.30;;;;;;5051822;28;20440;-68
2023/05/11 12:27:32;;;;;;;10.30;7.30;;;29.70;46.60;;;;;;5051320;28;20190;-68
2023/05/11 12:29:58;;;;;;;8.90;7.10;;;29.80;46.30;;;;;;5051608;28;20775;-68
2023/05/11 12:32:28;;;;;;;14.10;9.87;;;30.40;46.90;;;;;;5051712;28;20167;-68
2023/05/11 12:35:03;;;;;;;7.17;6.43;;;30.70;45.40;;;;;;5033654;28;20990;-68
2023/05/11 12:37:30;;;;;;;8.83;5.80;;;31.10;45.80;;;;;;5051191;28;20420;-68
2023/05/11 12:39:57;;;;;;;11.10;5.97;;;31.70;45.60;;;;;;5051427;28;21028;-68
2023/05/11 12:42:22;;;;;;;6.90;4.50;;;32.20;44.60;;;;;;5051367;28;20405;-68
2023/05/11 12:44:49;;;;;;;7.83;5.40;;;32.70;44.10;;;;;;5051457;28;20401;-68
2023/05/11 12:47:14;;;;;;;8.77;5.10;;;33.00;42.50;;;;;;5051126;28;20676;-68
2023/05/11 12:49:41;;;;;;;6.43;4.70;;;32.90;41.70;;;;;;5051533;28;20413;-68